createdAt,value
2019-03-13T00:01:49.381Z,1.54
2019-03-13T00:03:55.875Z,1.56
2019-03-13T00:06:03.304Z,1.60
2019-03-13T00:08:09.533Z,1.62
2019-03-13T00:10:16.344Z,1.63
2019-03-13T00:12:22.858Z,1.66
2019-03-13T00:14:32.747Z,1.67
2019-03-13T00:16:41.661Z,1.70
2019-03-13T00:18:51.623Z,1.70
2019-03-13T00:20:58.071Z,1.73
2019-03-13T00:23:04.835Z,1.74
2019-03-13T00:25:11.273Z,1.75
2019-03-13T00:27:17.439Z,1.78
2019-03-13T00:29:23.596Z,1.82
2019-03-13T00:31:30.602Z,1.82
2019-03-13T00:33:37.131Z,1.84
2019-03-13T00:35:43.403Z,1.85
2019-03-13T00:37:49.653Z,1.87
2019-03-13T00:39:55.819Z,1.88
2019-03-13T00:42:01.955Z,1.89
2019-03-13T00:44:08.135Z,1.89
2019-03-13T00:46:14.273Z,1.91
2019-03-13T00:48:20.326Z,1.93
2019-03-13T00:50:30.339Z,1.95
2019-03-13T00:52:36.533Z,1.97
2019-03-13T00:54:42.713Z,1.98
2019-03-13T00:56:48.962Z,2.00
2019-03-13T00:58:55.118Z,2.01
2019-03-13T01:01:15.103Z,2.03
2019-03-13T01:03:32.933Z,2.06
2019-03-13T01:05:43.598Z,2.09
2019-03-13T01:07:49.864Z,2.12
2019-03-13T01:09:56.113Z,2.14
2019-03-13T01:12:02.275Z,2.16
2019-03-13T01:14:08.436Z,2.16
2019-03-13T01:16:14.576Z,2.16
2019-03-13T01:18:21.057Z,2.20
2019-03-13T01:20:27.225Z,2.20
2019-03-13T01:22:33.481Z,2.21
2019-03-13T01:24:39.828Z,2.23
2019-03-13T01:26:48.463Z,2.21
2019-03-13T01:28:56.404Z,2.21
2019-03-13T01:31:19.527Z,2.21
2019-03-13T01:33:25.902Z,2.22
2019-03-13T01:35:40.054Z,2.24
2019-03-13T01:37:46.493Z,2.26
2019-03-13T01:39:53.103Z,2.26
2019-03-13T01:41:59.321Z,2.26
2019-03-13T01:44:06.604Z,2.25
2019-03-13T01:46:12.852Z,2.25
2019-03-13T01:48:19.112Z,2.25
2019-03-13T01:50:25.270Z,2.23
2019-03-13T01:52:32.352Z,2.22
2019-03-13T01:54:38.715Z,2.22
2019-03-13T01:56:44.972Z,2.24
2019-03-13T01:58:51.133Z,2.24
2019-03-13T02:00:57.296Z,2.25
2019-03-13T02:03:05.289Z,2.27
2019-03-13T02:05:11.450Z,2.26
2019-03-13T02:07:17.805Z,2.23
2019-03-13T02:09:23.969Z,2.24
2019-03-13T02:11:30.420Z,2.22
2019-03-13T02:13:36.591Z,2.20
2019-03-13T02:15:43.062Z,2.20
2019-03-13T02:17:49.210Z,2.17
2019-03-13T02:19:55.558Z,2.16
2019-03-13T02:22:01.644Z,2.16
2019-03-13T02:24:08.002Z,2.14
2019-03-13T02:26:14.145Z,2.14
2019-03-13T02:28:20.412Z,2.13
2019-03-13T02:30:28.213Z,2.15
2019-03-13T02:32:34.361Z,2.15
2019-03-13T02:34:40.526Z,2.15
2019-03-13T02:36:47.024Z,2.19
2019-03-13T02:38:53.540Z,2.22
2019-03-13T02:40:59.719Z,2.24
2019-03-13T02:43:06.057Z,2.26
2019-03-13T02:45:16.527Z,2.27
2019-03-13T02:47:22.691Z,2.29
2019-03-13T02:49:28.948Z,2.29
2019-03-13T02:51:35.161Z,2.29
2019-03-13T02:53:41.364Z,2.27
2019-03-13T02:55:47.530Z,2.28
2019-03-13T02:57:53.803Z,2.27
2019-03-13T02:59:59.945Z,2.27
2019-03-13T03:02:07.665Z,2.28
2019-03-13T03:04:14.788Z,2.27
2019-03-13T03:06:20.973Z,2.28
2019-03-13T03:08:27.036Z,2.27
2019-03-13T03:10:33.178Z,2.27
2019-03-13T03:12:39.348Z,2.27
2019-03-13T03:15:04.609Z,2.32
2019-03-13T03:17:10.815Z,2.29
2019-03-13T03:19:17.888Z,2.29
2019-03-13T03:21:25.065Z,2.29
2019-03-13T03:23:34.384Z,2.31
2019-03-13T03:25:40.447Z,2.29
2019-03-13T03:27:46.932Z,2.28
2019-03-13T03:29:53.073Z,2.27
2019-03-13T03:31:59.229Z,2.30
2019-03-13T03:34:06.160Z,2.31
2019-03-13T03:36:12.386Z,2.31
2019-03-13T03:38:18.647Z,2.32
2019-03-13T03:40:25.429Z,2.31
2019-03-13T03:42:31.991Z,2.32
2019-03-13T03:44:38.251Z,2.33
2019-03-13T03:46:48.642Z,2.33
2019-03-13T03:48:55.583Z,2.35
2019-03-13T03:51:02.756Z,2.35
2019-03-13T03:53:13.381Z,2.36
2019-03-13T03:55:19.468Z,2.36
2019-03-13T03:57:25.939Z,2.38
2019-03-13T03:59:32.208Z,2.40
2019-03-13T04:01:39.687Z,2.39
2019-03-13T04:03:46.349Z,2.41
2019-03-13T04:05:52.503Z,2.41
2019-03-13T04:07:58.538Z,2.42
2019-03-13T04:10:13.338Z,2.44
2019-03-13T04:12:21.794Z,2.45
2019-03-13T04:14:28.614Z,2.45
2019-03-13T04:16:36.315Z,2.47
2019-03-13T04:18:42.573Z,2.45
2019-03-13T04:20:49.079Z,2.45
2019-03-13T04:22:57.286Z,2.47
2019-03-13T04:25:21.631Z,2.45
2019-03-13T04:27:27.879Z,2.47
2019-03-13T04:29:34.033Z,2.48
2019-03-13T04:31:40.291Z,2.50
2019-03-13T04:33:46.455Z,2.51
2019-03-13T04:35:52.813Z,2.52
2019-03-13T04:37:58.977Z,2.52
2019-03-13T04:40:08.274Z,2.54
2019-03-13T04:42:14.658Z,2.56
2019-03-13T04:44:24.012Z,2.58
2019-03-13T04:46:33.580Z,2.58
2019-03-13T04:48:41.070Z,2.61
2019-03-13T04:50:52.424Z,2.63
2019-03-13T04:52:59.420Z,2.65
2019-03-13T04:55:08.884Z,2.67
2019-03-13T04:57:15.497Z,2.68
2019-03-13T04:59:21.743Z,2.69
2019-03-13T05:01:27.905Z,2.73
2019-03-13T05:03:33.931Z,2.76
2019-03-13T05:07:17.151Z,2.76
2019-03-13T05:08:45.419Z,2.78
2019-03-13T05:10:51.912Z,2.80
2019-03-13T05:12:58.146Z,2.83
2019-03-13T05:15:06.332Z,2.85
2019-03-13T05:17:13.957Z,2.88
2019-03-13T05:19:24.757Z,2.91
2019-03-13T05:21:32.654Z,2.93
2019-03-13T05:23:39.682Z,2.96
2019-03-13T05:25:50.310Z,3.01
2019-03-13T05:27:59.874Z,3.04
2019-03-13T05:30:09.834Z,3.09
2019-03-13T05:32:17.722Z,3.13
2019-03-13T05:34:24.030Z,3.19
2019-03-13T05:36:30.231Z,3.24
2019-03-13T05:38:36.441Z,3.28
2019-03-13T05:40:42.811Z,3.29
2019-03-13T05:42:48.864Z,3.35
2019-03-13T05:44:55.022Z,3.40
2019-03-13T05:47:01.182Z,3.58
2019-03-13T05:49:07.241Z,3.60
2019-03-13T05:51:13.388Z,3.71
2019-03-13T05:53:19.575Z,3.65
2019-03-13T05:55:26.844Z,3.68
2019-03-13T05:57:32.995Z,3.69
2019-03-13T05:59:39.157Z,3.70
2019-03-13T06:01:45.417Z,3.76
2019-03-13T06:03:51.578Z,3.78
2019-03-13T06:05:57.842Z,3.82
2019-03-13T06:08:03.987Z,3.92
2019-03-13T06:10:15.512Z,3.93
2019-03-13T06:12:21.841Z,3.91
2019-03-13T06:14:29.005Z,3.93
2019-03-13T06:16:35.176Z,4.01
2019-03-13T06:18:47.349Z,3.97
2019-03-13T06:21:21.809Z,4.05
2019-03-13T06:23:28.132Z,4.09
2019-03-13T06:25:35.849Z,4.21
2019-03-13T06:27:42.115Z,4.20
2019-03-13T06:29:48.268Z,4.25
2019-03-13T06:31:54.415Z,4.31
2019-03-13T06:34:00.685Z,4.36
2019-03-13T06:36:06.867Z,4.38
2019-03-13T06:38:12.844Z,4.45
2019-03-13T06:40:21.463Z,4.43
2019-03-13T06:42:27.557Z,4.53
2019-03-13T06:44:34.113Z,4.55
2019-03-13T06:46:40.316Z,4.57
2019-03-13T06:48:46.458Z,4.58
2019-03-13T06:50:52.705Z,4.55
2019-03-13T06:52:58.865Z,4.56
2019-03-13T06:55:05.846Z,4.61
2019-03-13T06:57:12.228Z,4.62
2019-03-13T06:59:20.114Z,4.67
2019-03-13T07:01:39.903Z,4.71
2019-03-13T07:03:47.779Z,4.73
2019-03-13T07:06:08.634Z,4.71
2019-03-13T07:08:29.390Z,4.73
2019-03-13T07:10:41.081Z,4.73
2019-03-13T07:12:48.874Z,4.70
2019-03-13T07:15:02.296Z,4.67
2019-03-13T07:17:10.213Z,4.62
2019-03-13T07:19:21.074Z,4.54
2019-03-13T07:21:46.890Z,4.49
2019-03-13T07:23:55.700Z,4.42
2019-03-13T07:26:09.757Z,4.21
2019-03-13T07:28:23.799Z,4.14
2019-03-13T07:30:31.781Z,4.07
2019-03-13T07:32:43.672Z,4.00
2019-03-13T07:35:01.422Z,3.96
2019-03-13T07:37:07.262Z,3.92
2019-03-13T07:39:16.283Z,3.93
2019-03-13T07:41:42.419Z,3.87
2019-03-13T07:44:06.593Z,3.86
2019-03-13T07:46:30.465Z,3.91
2019-03-13T07:48:54.542Z,3.79
2019-03-13T07:51:18.974Z,3.79
2019-03-13T07:53:41.684Z,3.82
2019-03-13T07:55:58.047Z,3.72
2019-03-13T07:58:21.135Z,3.77
2019-03-13T08:00:32.877Z,3.79
2019-03-13T08:02:55.667Z,3.71
2019-03-13T08:05:03.841Z,3.72
2019-03-13T08:07:12.998Z,3.78
2019-03-13T08:09:21.820Z,3.80
2019-03-13T08:11:44.265Z,3.84
2019-03-13T08:14:08.226Z,3.78
2019-03-13T08:16:32.016Z,3.78
2019-03-13T08:18:42.536Z,3.81
2019-03-13T08:20:54.159Z,3.85
2019-03-13T08:23:22.940Z,3.73
2019-03-13T08:25:30.828Z,3.73
2019-03-13T08:27:44.112Z,3.72
2019-03-13T08:29:53.513Z,3.76
2019-03-13T08:32:06.937Z,3.81
2019-03-13T08:34:27.033Z,3.90
2019-03-13T08:36:47.021Z,3.97
2019-03-13T08:39:10.970Z,4.08
2019-03-13T08:41:18.770Z,4.05
2019-03-13T08:43:38.335Z,4.16
2019-03-13T08:45:52.992Z,4.23
2019-03-13T08:47:58.855Z,4.26
2019-03-13T08:50:15.858Z,4.28
2019-03-13T08:52:23.787Z,4.25
2019-03-13T08:54:42.134Z,4.23
2019-03-13T08:57:07.614Z,4.15
2019-03-13T08:59:31.380Z,4.09
2019-03-13T09:01:39.040Z,4.09
2019-03-13T09:03:55.731Z,4.15
2019-03-13T09:06:04.383Z,4.22
2019-03-13T09:08:14.938Z,4.27
2019-03-13T09:10:39.013Z,4.34
2019-03-13T09:12:50.935Z,4.39
2019-03-13T09:15:02.430Z,4.40
2019-03-13T09:17:10.877Z,4.44
2019-03-13T09:19:23.243Z,4.35
2019-03-13T09:21:47.728Z,4.36
2019-03-13T09:24:07.543Z,4.34
2019-03-13T09:26:18.072Z,4.38
2019-03-13T09:28:28.617Z,4.38
2019-03-13T09:30:52.689Z,4.35
2019-03-13T09:33:00.397Z,4.30
2019-03-13T09:35:28.465Z,4.39
2019-03-13T09:37:37.492Z,4.39
2019-03-13T09:39:46.205Z,4.36
2019-03-13T09:41:54.107Z,4.37
2019-03-13T09:44:00.263Z,4.44
2019-03-13T09:46:16.978Z,4.48
2019-03-13T09:48:24.762Z,4.50
2019-03-13T09:50:33.479Z,4.63
2019-03-13T09:52:57.651Z,4.84
2019-03-13T09:55:05.656Z,4.98
2019-03-13T09:57:25.519Z,5.40
2019-03-13T09:59:42.809Z,5.68
2019-03-13T10:01:53.051Z,5.83
2019-03-13T10:04:03.976Z,6.10
2019-03-13T10:06:27.018Z,6.23
2019-03-13T10:08:37.682Z,6.44
2019-03-13T10:10:45.497Z,6.53
2019-03-13T10:13:02.033Z,6.72
2019-03-13T10:15:26.691Z,6.98
2019-03-13T10:17:49.534Z,7.06
2019-03-13T10:20:03.081Z,7.26
2019-03-13T10:22:11.049Z,7.15
2019-03-13T10:24:20.936Z,7.20
2019-03-13T10:26:31.661Z,7.21
2019-03-13T10:28:55.757Z,7.16
2019-03-13T10:31:12.665Z,7.08
2019-03-13T10:33:26.599Z,7.04
2019-03-13T10:35:41.250Z,7.05
2019-03-13T10:38:13.322Z,6.93
2019-03-13T10:40:16.816Z,6.89
2019-03-13T10:42:33.613Z,6.89
2019-03-13T10:44:41.623Z,7.08
2019-03-13T10:46:49.411Z,7.24
2019-03-13T10:49:13.560Z,7.31
2019-03-13T10:51:36.854Z,7.23
2019-03-13T10:53:56.651Z,7.22
2019-03-13T10:56:07.428Z,7.33
2019-03-13T10:58:21.546Z,7.58
2019-03-13T11:00:33.238Z,7.83
2019-03-13T11:02:56.406Z,7.77
2019-03-13T11:05:04.800Z,7.70
2019-03-13T11:07:29.199Z,7.66
2019-03-13T11:09:42.814Z,7.74
2019-03-13T11:11:56.958Z,7.94
2019-03-13T11:14:15.032Z,8.09
2019-03-13T11:16:14.998Z,8.22
2019-03-13T11:18:23.029Z,8.20
2019-03-13T11:20:51.685Z,8.17
2019-03-13T11:23:07.668Z,7.88
2019-03-13T11:25:15.314Z,7.78
2019-03-13T11:27:28.830Z,7.81
2019-03-13T11:29:40.909Z,7.93
2019-03-13T11:31:54.848Z,8.02
2019-03-13T11:34:16.160Z,8.12
2019-03-13T11:36:26.689Z,8.13
2019-03-13T11:38:37.181Z,8.24
2019-03-13T11:40:44.967Z,8.32
2019-03-13T11:42:52.681Z,8.45
2019-03-13T11:45:00.973Z,8.45
2019-03-13T11:47:06.916Z,8.50
2019-03-13T11:49:18.515Z,8.52
2019-03-13T11:51:38.309Z,8.54
2019-03-13T11:53:46.104Z,8.22
2019-03-13T11:55:56.652Z,8.01
2019-03-13T11:58:18.265Z,7.88
2019-03-13T12:00:58.315Z,7.70
2019-03-13T12:03:09.820Z,7.68
2019-03-13T12:05:21.395Z,7.78
2019-03-13T12:07:39.314Z,7.88
2019-03-13T12:09:50.732Z,8.04
2019-03-13T12:12:07.714Z,8.26
2019-03-13T12:14:16.150Z,8.41
2019-03-13T12:16:30.275Z,8.61
2019-03-13T12:18:37.912Z,8.89
2019-03-13T12:20:48.837Z,9.13
2019-03-13T12:22:59.600Z,9.26
2019-03-13T12:25:16.951Z,9.44
2019-03-13T12:27:41.023Z,9.40
2019-03-13T12:30:05.069Z,9.40
2019-03-13T12:32:28.953Z,9.46
2019-03-13T12:34:52.001Z,9.43
2019-03-13T12:37:05.635Z,9.29
2019-03-13T12:39:13.432Z,9.21
2019-03-13T12:41:19.385Z,9.16
2019-03-13T12:43:27.297Z,9.02
2019-03-13T12:45:44.534Z,8.92
2019-03-13T12:48:16.647Z,8.91
2019-03-13T12:50:27.129Z,8.96
2019-03-13T12:52:45.270Z,9.16
2019-03-13T12:55:05.348Z,9.51
2019-03-13T12:57:18.893Z,9.74
2019-03-13T12:59:26.879Z,9.71
2019-03-13T13:01:35.917Z,9.49
2019-03-13T13:04:00.089Z,9.45
2019-03-13T13:06:06.125Z,9.61
2019-03-13T13:08:25.915Z,9.48
2019-03-13T13:10:39.961Z,9.40
2019-03-13T13:12:45.927Z,9.24
2019-03-13T13:15:02.728Z,9.24
2019-03-13T13:17:22.507Z,9.22
2019-03-13T13:19:28.651Z,9.18
2019-03-13T13:21:34.843Z,8.97
2019-03-13T13:23:41.182Z,8.93
2019-03-13T13:25:47.838Z,9.06
2019-03-13T13:27:53.998Z,9.10
2019-03-13T13:30:00.534Z,9.06
2019-03-13T13:32:06.934Z,9.12
2019-03-13T13:34:13.398Z,9.15
2019-03-13T13:36:19.577Z,9.13
2019-03-13T13:38:25.832Z,9.12
2019-03-13T13:40:32.086Z,9.09
2019-03-13T13:42:38.567Z,9.04
2019-03-13T13:44:44.825Z,9.07
2019-03-13T13:46:51.283Z,9.20
2019-03-13T13:48:57.539Z,9.27
2019-03-13T13:51:03.789Z,9.33
2019-03-13T13:53:10.053Z,9.47
2019-03-13T13:55:17.439Z,9.48
2019-03-13T13:57:24.926Z,9.50
2019-03-13T13:59:31.088Z,9.49
2019-03-13T14:01:37.236Z,9.57
2019-03-13T14:03:43.404Z,9.65
2019-03-13T14:05:49.756Z,9.71
2019-03-13T14:07:56.020Z,9.62
2019-03-13T14:10:02.172Z,9.54
2019-03-13T14:12:08.438Z,9.43
2019-03-13T14:14:15.007Z,9.36
2019-03-13T14:16:21.374Z,9.43
2019-03-13T14:18:27.731Z,9.56
2019-03-13T14:20:34.211Z,9.56
2019-03-13T14:22:40.438Z,9.52
2019-03-13T14:24:47.636Z,9.52
2019-03-13T14:26:53.778Z,9.54
2019-03-13T14:28:59.959Z,9.63
2019-03-13T14:31:06.500Z,9.75
2019-03-13T14:33:12.893Z,9.85
2019-03-13T14:35:19.081Z,9.74
2019-03-13T14:37:25.414Z,9.76
2019-03-13T14:39:31.862Z,9.80
2019-03-13T14:41:38.336Z,9.91
2019-03-13T14:43:44.485Z,9.98
2019-03-13T14:45:50.656Z,9.81
2019-03-13T14:47:57.018Z,9.70
2019-03-13T14:50:03.277Z,9.56
2019-03-13T14:52:09.455Z,9.51
2019-03-13T14:54:15.700Z,9.37
2019-03-13T14:56:22.176Z,9.29
2019-03-13T14:58:28.630Z,9.30
2019-03-13T15:00:34.875Z,9.28
2019-03-13T15:02:41.157Z,9.18
2019-03-13T15:04:47.401Z,9.03
2019-03-13T15:06:53.552Z,8.89
2019-03-13T15:09:00.135Z,8.75
2019-03-13T15:11:06.798Z,8.67
2019-03-13T15:13:13.057Z,8.59
2019-03-13T15:15:22.096Z,8.61
2019-03-13T15:17:28.497Z,8.72
2019-03-13T15:19:36.567Z,8.85
2019-03-13T15:21:44.637Z,9.02
2019-03-13T15:23:51.119Z,9.17
2019-03-13T15:25:57.512Z,9.18
2019-03-13T15:28:04.926Z,9.17
2019-03-13T15:30:27.611Z,9.18
2019-03-13T15:32:33.976Z,9.15
2019-03-13T15:34:41.621Z,9.11
2019-03-13T15:36:48.049Z,9.05
2019-03-13T15:38:55.842Z,9.05
2019-03-13T15:41:03.228Z,9.00
2019-03-13T15:43:09.822Z,8.97
2019-03-13T15:45:20.212Z,8.89
2019-03-13T15:47:26.596Z,8.91
2019-03-13T15:49:35.542Z,8.86
2019-03-13T15:51:43.414Z,8.87
2019-03-13T15:53:49.832Z,8.84
2019-03-13T15:55:57.817Z,8.82
2019-03-13T15:58:05.687Z,8.76
2019-03-13T16:00:23.158Z,8.66
2019-03-13T16:02:31.516Z,8.56
2019-03-13T16:04:37.984Z,8.44
2019-03-13T16:06:44.612Z,8.37
2019-03-13T16:08:51.030Z,8.29
2019-03-13T16:10:57.469Z,8.23
2019-03-13T16:13:05.427Z,8.18
2019-03-13T16:15:22.472Z,8.12
2019-03-13T16:17:45.291Z,8.08
2019-03-13T16:19:56.375Z,8.04
2019-03-13T16:22:03.928Z,7.98
2019-03-13T16:24:10.172Z,7.94
2019-03-13T16:26:16.669Z,7.90
2019-03-13T16:28:24.021Z,7.83
2019-03-13T16:30:35.740Z,7.74
2019-03-13T16:32:44.162Z,7.63
2019-03-13T16:34:51.825Z,7.49
2019-03-13T16:36:59.621Z,7.36
2019-03-13T16:39:08.993Z,7.22
2019-03-13T16:41:16.004Z,7.12
2019-03-13T16:43:22.557Z,7.10
2019-03-13T16:45:29.128Z,7.05
2019-03-13T16:47:35.535Z,7.04
2019-03-13T16:49:42.206Z,7.08
2019-03-13T16:51:49.792Z,7.06
2019-03-13T16:53:56.235Z,7.07
2019-03-13T16:56:06.333Z,7.06
2019-03-13T16:58:13.012Z,7.05
2019-03-13T17:00:34.175Z,7.09
2019-03-13T17:02:40.604Z,7.12
2019-03-13T17:04:47.180Z,7.17
2019-03-13T17:06:53.773Z,7.15
2019-03-13T17:09:00.178Z,7.14
2019-03-13T17:11:10.167Z,7.11
2019-03-13T17:13:16.768Z,7.09
2019-03-13T17:15:24.494Z,7.12
2019-03-13T17:17:32.432Z,7.14
2019-03-13T17:19:39.428Z,7.16
2019-03-13T17:21:45.992Z,7.15
2019-03-13T17:23:54.405Z,7.19
2019-03-13T17:26:00.767Z,7.19
2019-03-13T17:28:09.806Z,7.21
2019-03-13T17:30:25.760Z,7.20
2019-03-13T17:32:33.745Z,7.21
2019-03-13T17:34:48.835Z,7.24
2019-03-13T17:37:05.857Z,7.23
2019-03-13T17:39:19.316Z,7.26
2019-03-13T17:41:32.357Z,7.27
2019-03-13T17:43:45.701Z,7.25
2019-03-13T17:46:00.291Z,7.21
2019-03-13T17:48:14.361Z,7.18
2019-03-13T17:50:24.720Z,7.10
2019-03-13T17:52:31.356Z,7.02
2019-03-13T17:54:37.676Z,6.99
2019-03-13T17:56:46.295Z,6.94
2019-03-13T17:58:56.604Z,6.95
2019-03-13T18:01:03.426Z,6.93
2019-03-13T18:03:10.038Z,6.96
2019-03-13T18:05:17.798Z,6.99
2019-03-13T18:07:24.285Z,7.00
2019-03-13T18:09:31.197Z,6.99
2019-03-13T18:11:39.264Z,7.01
2019-03-13T18:13:47.281Z,7.01
2019-03-13T18:15:55.278Z,7.03
2019-03-13T18:18:01.968Z,7.03
2019-03-13T18:20:13.954Z,7.04
2019-03-13T18:22:20.707Z,7.02
2019-03-13T18:24:29.230Z,7.01
2019-03-13T18:26:35.928Z,7.05
2019-03-13T18:28:43.338Z,7.04
2019-03-13T18:30:50.073Z,7.01
2019-03-13T18:32:57.438Z,6.98
2019-03-13T18:35:07.257Z,6.97
2019-03-13T18:37:15.160Z,6.96
2019-03-13T18:39:23.082Z,6.94
2019-03-13T18:41:33.344Z,6.91
2019-03-13T18:43:40.796Z,6.90
2019-03-13T18:45:48.402Z,6.89
2019-03-13T18:47:55.474Z,6.91
2019-03-13T18:50:02.285Z,6.95
2019-03-13T18:52:09.956Z,6.97
2019-03-13T18:54:18.194Z,6.96
2019-03-13T18:56:24.836Z,6.98
2019-03-13T18:58:34.832Z,7.02
2019-03-13T19:00:41.721Z,7.01
2019-03-13T19:02:50.003Z,7.05
2019-03-13T19:04:58.847Z,7.02
2019-03-13T19:07:11.513Z,7.03
2019-03-13T19:09:18.247Z,7.05
2019-03-13T19:11:25.032Z,7.04
2019-03-13T19:13:35.987Z,7.04
2019-03-13T19:15:42.979Z,7.04
2019-03-13T19:17:49.524Z,7.05
2019-03-13T19:19:56.837Z,7.09
2019-03-13T19:22:04.342Z,7.04
2019-03-13T19:24:11.039Z,7.05
2019-03-13T19:26:17.867Z,7.06
2019-03-13T19:28:26.059Z,7.06
2019-03-13T19:30:37.937Z,7.05
2019-03-13T19:32:46.874Z,7.04
2019-03-13T19:34:56.330Z,7.05
2019-03-13T19:37:04.488Z,7.05
2019-03-13T19:39:12.475Z,7.07
2019-03-13T19:41:19.346Z,7.08
2019-03-13T19:43:25.934Z,7.11
2019-03-13T19:45:40.375Z,7.10
2019-03-13T19:47:48.853Z,7.12
2019-03-13T19:49:57.570Z,7.11
2019-03-13T19:52:04.257Z,7.15
2019-03-13T19:54:13.917Z,7.12
2019-03-13T19:56:25.812Z,7.14
2019-03-13T19:58:32.665Z,7.10
2019-03-13T20:00:40.824Z,7.08
2019-03-13T20:02:59.366Z,7.05
2019-03-13T20:05:00.975Z,7.05
2019-03-13T20:07:12.757Z,7.04
2019-03-13T20:09:24.972Z,7.03
2019-03-13T20:11:33.438Z,7.02
2019-03-13T20:13:43.206Z,7.01
2019-03-13T20:15:55.145Z,7.00
2019-03-13T20:18:03.074Z,6.99
2019-03-13T20:20:14.998Z,6.96
2019-03-13T20:22:22.848Z,6.95
2019-03-13T20:24:29.495Z,6.94
2019-03-13T20:26:36.014Z,6.94
2019-03-13T20:28:46.407Z,6.93
2019-03-13T20:30:54.595Z,6.94
2019-03-13T20:33:04.955Z,6.91
2019-03-13T20:35:17.584Z,6.93
2019-03-13T20:37:27.063Z,6.91
2019-03-13T20:39:33.783Z,6.91
2019-03-13T20:41:43.206Z,6.90
2019-03-13T20:43:50.013Z,6.91
2019-03-13T20:45:56.939Z,6.93
2019-03-13T20:48:03.784Z,6.94
2019-03-13T20:50:15.403Z,6.93
2019-03-13T20:52:23.785Z,6.89
2019-03-13T20:54:31.655Z,6.89
2019-03-13T20:56:41.574Z,6.88
2019-03-13T20:58:48.435Z,6.86
2019-03-13T21:00:55.419Z,6.87
2019-03-13T21:03:04.900Z,6.82
2019-03-13T21:05:13.527Z,6.78
2019-03-13T21:07:22.957Z,6.76
2019-03-13T21:09:42.299Z,6.75
2019-03-13T21:11:48.978Z,6.70
2019-03-13T21:13:55.600Z,6.67
2019-03-13T21:16:02.421Z,6.67
2019-03-13T21:18:11.100Z,6.67
2019-03-13T21:20:19.880Z,6.64
2019-03-13T21:22:26.451Z,6.64
2019-03-13T21:24:36.840Z,6.62
2019-03-13T21:26:43.977Z,6.64
2019-03-13T21:28:51.879Z,6.68
2019-03-13T21:30:59.810Z,6.69
2019-03-13T21:33:08.040Z,6.74
2019-03-13T21:35:15.000Z,6.72
2019-03-13T21:37:24.350Z,6.71
2019-03-13T21:39:32.530Z,6.72
2019-03-13T21:41:40.540Z,6.70
2019-03-13T21:43:51.132Z,6.67
2019-03-13T21:45:59.628Z,6.67
2019-03-13T21:48:06.270Z,6.68
2019-03-13T21:50:15.320Z,6.67
2019-03-13T21:52:21.885Z,6.70
2019-03-13T21:54:28.439Z,6.73
2019-03-13T21:56:35.104Z,6.69
2019-03-13T21:58:42.838Z,6.70
2019-03-13T22:00:49.232Z,6.68
2019-03-13T22:03:27.973Z,6.65
2019-03-13T22:05:27.543Z,6.67
2019-03-13T22:07:34.099Z,6.65
2019-03-13T22:09:41.305Z,6.66
2019-03-13T22:11:47.586Z,6.66
2019-03-13T22:13:53.936Z,6.65
2019-03-13T22:16:00.188Z,6.64
2019-03-13T22:18:06.566Z,6.66
2019-03-13T22:20:15.545Z,6.66
2019-03-13T22:22:21.763Z,6.67
2019-03-13T22:24:27.996Z,6.70
2019-03-13T22:26:34.155Z,6.72
2019-03-13T22:28:42.658Z,6.72
2019-03-13T22:30:49.533Z,6.73
2019-03-13T22:32:55.906Z,6.74
2019-03-13T22:35:02.164Z,6.75
2019-03-13T22:37:08.461Z,6.76
2019-03-13T22:39:14.985Z,6.74
2019-03-13T22:41:21.270Z,6.74
2019-03-13T22:43:27.513Z,6.72
2019-03-13T22:45:33.671Z,6.69
2019-03-13T22:47:43.038Z,6.68
2019-03-13T22:49:47.820Z,6.65
2019-03-13T22:51:53.974Z,6.64
2019-03-13T22:54:00.170Z,6.63
2019-03-13T22:56:06.418Z,6.64
2019-03-13T22:58:12.682Z,6.59
2019-03-13T23:00:30.598Z,6.58
2019-03-13T23:02:38.713Z,6.55
2019-03-13T23:04:45.874Z,6.54
2019-03-13T23:06:52.148Z,6.51
2019-03-13T23:08:58.810Z,6.50
2019-03-13T23:11:05.488Z,6.50
2019-03-13T23:13:11.755Z,6.53
2019-03-13T23:15:18.003Z,6.50
2019-03-13T23:17:24.985Z,6.48
2019-03-13T23:19:32.271Z,6.49
2019-03-13T23:21:38.648Z,6.53
2019-03-13T23:23:44.886Z,6.52
2019-03-13T23:25:51.241Z,6.50
2019-03-13T23:27:57.597Z,6.51
2019-03-13T23:30:05.287Z,6.51
2019-03-13T23:32:11.679Z,6.49
2019-03-13T23:34:19.370Z,6.49
2019-03-13T23:36:25.616Z,6.48
2019-03-13T23:38:31.983Z,6.49
2019-03-13T23:40:38.140Z,6.43
2019-03-13T23:42:44.411Z,6.42
2019-03-13T23:44:50.561Z,6.43
2019-03-13T23:46:56.715Z,6.42
2019-03-13T23:49:03.489Z,6.44
2019-03-13T23:51:09.656Z,6.42
2019-03-13T23:53:15.905Z,6.45
2019-03-13T23:55:22.494Z,6.45
2019-03-13T23:57:28.840Z,6.44
2019-03-13T23:59:35.293Z,6.44
